| time (UTC) | temp F | wind direction | speed MPH | gust MPH | rain 1hr in | rain 24hr in | rain mn in | humidity % | barometer mb |
| 20260904161733 | 64 | 259 | 4.0 | 7.0 | 0.00 | 0.35 | 0.35 | 92 | 1010.4 |
| 20260904160729 | 64 | 266 | 3.0 | 7.0 | 0.00 | 0.35 | 0.35 | 92 | 1010.5 |
| 20260904155726 | 64 | 264 | 4.0 | 9.0 | 0.00 | 0.35 | 0.35 | 92 | 1010.4 |
| 20260904154723 | 64 | 244 | 4.0 | 9.0 | 0.03 | 0.35 | 0.35 | 93 | 1010.3 |
| 20260904153720 | 63 | 238 | 4.0 | 8.0 | 0.04 | 0.35 | 0.35 | 93 | 1010.2 |
| 20260904152722 | 63 | 253 | 4.0 | 8.0 | 0.06 | 0.35 | 0.35 | 93 | 1010.3 |
| 20260904151734 | 63 | 248 | 5.0 | 10.0 | 0.09 | 0.35 | 0.35 | 94 | 1010.3 |
| 20260904150731 | 62 | 258 | 5.0 | 13.0 | 0.09 | 0.35 | 0.35 | 94 | 1010.0 |
| 20260904145728 | 62 | 244 | 5.0 | 10.0 | 0.09 | 0.35 | 0.35 | 93 | 1010.0 |
| 20260904144725 | 63 | 244 | 6.0 | 11.0 | 0.07 | 0.32 | 0.32 | 93 | 1010.0 |
| 20260904143722 | 63 | 259 | 5.0 | 10.0 | 0.06 | 0.31 | 0.31 | 94 | 1009.7 |
| 20260904142719 | 63 | 236 | 5.0 | 10.0 | 0.06 | 0.29 | 0.29 | 94 | 1009.7 |
| 20260904141716 | 63 | 267 | 4.0 | 10.0 | 0.03 | 0.26 | 0.26 | 94 | 1009.4 |
| 20260904140733 | 63 | 276 | 4.0 | 10.0 | 0.08 | 0.26 | 0.26 | 95 | 1009.5 |
| 20260904135730 | 63 | 268 | 4.0 | 9.0 | 0.10 | 0.26 | 0.26 | 95 | 1009.4 |
| 20260904134728 | 63 | 279 | 4.0 | 10.0 | 0.09 | 0.25 | 0.25 | 95 | 1009.3 |
| 20260904133725 | 63 | 249 | 3.0 | 8.0 | 0.10 | 0.25 | 0.25 | 95 | 1009.4 |
| 20260904132723 | 64 | 296 | 3.0 | 7.0 | 0.12 | 0.23 | 0.23 | 95 | 1009.4 |
| 20260904131718 | 64 | 282 | 2.0 | 6.0 | 0.16 | 0.23 | 0.23 | 95 | 1009.3 |
| 20260904130715 | 64 | 315 | 2.0 | 6.0 | 0.18 | 0.18 | 0.18 | 95 | 1008.9 |
| 20260904125733 | 64 | 269 | 1.0 | 2.0 | 0.16 | 0.16 | 0.16 | 95 | 1009.0 |
| 20260904124730 | 63 | 294 | 1.0 | 3.0 | 0.16 | 0.16 | 0.16 | 94 | 1009.0 |
| 20260904123727 | 63 | 290 | 2.0 | 4.0 | 0.15 | 0.15 | 0.15 | 93 | 1008.9 |
| 20260904122724 | 63 | 323 | 2.0 | 8.0 | 0.11 | 0.11 | 0.11 | 92 | 1008.9 |
| 20260904121720 | 67 | 330 | 4.0 | 10.0 | 0.07 | 0.07 | 0.07 | 84 | 1009.0 |
| 20260904120717 | 73 | 242 | 6.0 | 13.0 | 0.00 | 0.00 | 0.00 | 78 | 1008.2 |
| 20260904115734 | 73 | 248 | 7.0 | 14.0 | 0.00 | 0.00 | 0.00 | 78 | 1008.1 |
| 20260904114731 | 73 | 254 | 6.0 | 15.0 | 0.00 | 0.00 | 0.00 | 78 | 1008.3 |
| 20260904113728 | 73 | 267 | 7.0 | 14.0 | 0.00 | 0.00 | 0.00 | 79 | 1008.2 |
| 20260904112725 | 73 | 258 | 7.0 | 18.0 | 0.00 | 0.00 | 0.00 | 80 | 1008.4 |
| 20260904111722 | 72 | 269 | 5.0 | 11.0 | 0.00 | 0.00 | 0.00 | 82 | 1008.5 |
| 20260904110719 | 70 | 244 | 6.0 | 13.0 | 0.00 | 0.00 | 0.00 | 86 | 1008.6 |
| 20260904105716 | 70 | 270 | 7.0 | 11.0 | 0.00 | 0.00 | 0.00 | 85 | 1008.9 |
| 20260904104733 | 72 | 295 | 7.0 | 21.0 | 0.00 | 0.01 | 0.00 | 81 | 1008.8 |
| 20260904103730 | 72 | 287 | 6.0 | 14.0 | 0.00 | 0.01 | 0.00 | 80 | 1008.5 |
| 20260904102727 | 72 | 263 | 6.0 | 13.0 | 0.00 | 0.01 | 0.00 | 80 | 1008.5 |
| 20260904101725 | 71 | 258 | 5.0 | 10.0 | 0.00 | 0.01 | 0.00 | 81 | 1008.8 |
| 20260904100721 | 71 | 242 | 6.0 | 10.0 | 0.00 | 0.01 | 0.00 | 80 | 1009.0 |
| 20260904095718 | 71 | 261 | 7.0 | 16.0 | 0.00 | 0.01 | 0.00 | 80 | 1008.9 |
| 20260904094736 | 70 | 265 | 6.0 | 15.0 | 0.00 | 0.01 | 0.00 | 82 | 1008.6 |
| 20260904093732 | 70 | 297 | 5.0 | 10.0 | 0.00 | 0.01 | 0.00 | 82 | 1008.7 |
| 20260904092734 | 71 | 270 | 5.0 | 10.0 | 0.00 | 0.01 | 0.00 | 81 | 1008.9 |
| 20260904091726 | 71 | 270 | 5.0 | 9.0 | 0.00 | 0.01 | 0.00 | 81 | 1008.8 |
| 20260904090723 | 70 | 271 | 5.0 | 10.0 | 0.00 | 0.01 | 0.00 | 81 | 1009.0 |
| 20260904085720 | 71 | 291 | 5.0 | 11.0 | 0.00 | 0.01 | 0.00 | 81 | 1009.0 |
| 20260904084717 | 70 | 276 | 6.0 | 10.0 | 0.00 | 0.01 | 0.00 | 81 | 1008.9 |
| 20260904083734 | 70 | 250 | 5.0 | 9.0 | 0.00 | 0.01 | 0.00 | 83 | 1009.1 |
| 20260904082736 | 69 | 256 | 5.0 | 9.0 | 0.00 | 0.01 | 0.00 | 83 | 1009.2 |
| 20260904081728 | 69 | 284 | 5.0 | 10.0 | 0.00 | 0.01 | 0.00 | 84 | 1009.3 |
| 20260904080726 | 69 | 275 | 6.0 | 13.0 | 0.00 | 0.01 | 0.00 | 85 | 1009.4 |
| 20260904075723 | 69 | 267 | 5.0 | 9.0 | 0.00 | 0.01 | 0.00 | 84 | 1009.4 |
| 20260904074720 | 69 | 263 | 5.0 | 10.0 | 0.00 | 0.01 | 0.00 | 84 | 1009.5 |
| 20260904073716 | 69 | 273 | 4.0 | 10.0 | 0.00 | 0.01 | 0.00 | 85 | 1009.5 |
| 20260904072739 | 68 | 257 | 5.0 | 10.0 | 0.00 | 0.01 | 0.00 | 85 | 1009.8 |
| 20260904071731 | 69 | 251 | 5.0 | 10.0 | 0.00 | 0.01 | 0.00 | 85 | 1009.9 |
| 20260904070728 | 69 | 250 | 4.0 | 10.0 | 0.00 | 0.01 | 0.00 | 85 | 1009.8 |
| 20260904065725 | 68 | 258 | 5.0 | 10.0 | 0.00 | 0.01 | 0.00 | 85 | 1010.0 |
| 20260904064721 | 68 | 249 | 5.0 | 10.0 | 0.00 | 0.01 | 0.00 | 86 | 1010.1 |
| 20260904063718 | 68 | 250 | 3.0 | 7.0 | 0.00 | 0.01 | 0.00 | 86 | 1010.0 |
| 20260904062721 | 68 | 279 | 4.0 | 10.0 | 0.00 | 0.01 | 0.00 | 86 | 1010.0 |
| 20260904061733 | 68 | 250 | 4.0 | 9.0 | 0.00 | 0.01 | 0.00 | 86 | 1010.0 |
| 20260904060730 | 68 | 269 | 4.0 | 8.0 | 0.00 | 0.01 | 0.00 | 86 | 1010.2 |
| 20260904055727 | 68 | 268 | 5.0 | 8.0 | 0.00 | 0.01 | 0.00 | 86 | 1010.3 |
| 20260904054724 | 68 | 287 | 4.0 | 10.0 | 0.00 | 0.01 | 0.00 | 86 | 1010.6 |
| 20260904053721 | 68 | 259 | 4.0 | 9.0 | 0.00 | 0.01 | 0.00 | 86 | 1010.6 |
| 20260904052718 | 68 | 271 | 5.0 | 10.0 | 0.00 | 0.01 | 0.00 | 86 | 1010.7 |
| 20260904051735 | 68 | 262 | 5.0 | 9.0 | 0.00 | 0.01 | 0.00 | 86 | 1010.8 |
| 20260904050733 | 68 | 267 | 4.0 | 9.0 | 0.00 | 0.01 | 0.00 | 87 | 1010.9 |
| 20260904045729 | 68 | 262 | 4.0 | 9.0 | 0.00 | 0.01 | 0.00 | 87 | 1011.0 |
| 20260904044726 | 68 | 254 | 3.0 | 8.0 | 0.00 | 0.01 | 0.00 | 88 | 1011.1 |
| 20260904043724 | 68 | 251 | 4.0 | 8.0 | 0.00 | 0.01 | 0.00 | 88 | 1011.3 |
| 20260904042720 | 68 | 268 | 4.0 | 9.0 | 0.00 | 0.01 | 0.00 | 87 | 1011.3 |
| 20260904041719 | 68 | 260 | 4.0 | 8.0 | 0.00 | 0.01 | 0.00 | 88 | 1011.3 |
| 20260904040735 | 68 | 251 | 4.0 | 8.0 | 0.00 | 0.01 | 0.00 | 88 | 1011.3 |
| 20260904035732 | 68 | 259 | 4.0 | 8.0 | 0.00 | 0.01 | 0.00 | 88 | 1011.5 |
| 20260904034729 | 68 | 258 | 4.0 | 9.0 | 0.00 | 0.01 | 0.00 | 88 | 1011.6 |
| 20260904033726 | 68 | 256 | 4.0 | 10.0 | 0.00 | 0.01 | 0.00 | 88 | 1011.8 |
| 20260904032723 | 68 | 258 | 4.0 | 8.0 | 0.00 | 0.01 | 0.00 | 88 | 1011.9 |
| 20260904031720 | 68 | 267 | 4.0 | 7.0 | 0.00 | 0.01 | 0.00 | 88 | 1011.9 |
| 20260904030717 | 68 | 270 | 3.0 | 8.0 | 0.00 | 0.01 | 0.00 | 88 | 1012.0 |
| 20260904025735 | 68 | 274 | 4.0 | 8.0 | 0.00 | 0.01 | 0.00 | 88 | 1012.2 |
| 20260904024732 | 68 | 257 | 4.0 | 8.0 | 0.00 | 0.01 | 0.00 | 88 | 1012.2 |
| 20260904023729 | 68 | 240 | 3.0 | 7.0 | 0.00 | 0.01 | 0.00 | 88 | 1012.4 |
| 20260904022726 | 68 | 261 | 3.0 | 8.0 | 0.00 | 0.01 | 0.00 | 89 | 1012.5 |
| 20260904021723 | 68 | 262 | 3.0 | 8.0 | 0.00 | 0.01 | 0.00 | 89 | 1012.7 |
| 20260904020720 | 68 | 272 | 4.0 | 7.0 | 0.00 | 0.01 | 0.00 | 89 | 1012.8 |
| 20260904015717 | 67 | 277 | 3.0 | 7.0 | 0.00 | 0.01 | 0.00 | 90 | 1012.9 |
| 20260904014734 | 67 | 243 | 3.0 | 7.0 | 0.00 | 0.01 | 0.00 | 90 | 1013.1 |
| 20260904013731 | 67 | 249 | 3.0 | 8.0 | 0.00 | 0.01 | 0.00 | 91 | 1013.1 |
| 20260904012730 | 67 | 274 | 4.0 | 9.0 | 0.00 | 0.01 | 0.00 | 91 | 1013.2 |
| 20260904011726 | 67 | 269 | 3.0 | 7.0 | 0.00 | 0.01 | 0.00 | 91 | 1013.3 |
| 20260904010723 | 67 | 283 | 4.0 | 7.0 | 0.00 | 0.01 | 0.00 | 91 | 1013.4 |
| 20260904005719 | 67 | 264 | 4.0 | 7.0 | 0.00 | 0.01 | 0.00 | 91 | 1013.3 |
| 20260904004717 | 67 | 255 | 3.0 | 7.0 | 0.00 | 0.01 | 0.00 | 91 | 1013.4 |
| 20260904003734 | 67 | 266 | 3.0 | 7.0 | 0.00 | 0.01 | 0.00 | 91 | 1013.5 |
| 20260904002736 | 67 | 254 | 3.0 | 9.0 | 0.00 | 0.01 | 0.00 | 91 | 1013.5 |
| 20260904001728 | 67 | 255 | 2.0 | 6.0 | 0.00 | 0.01 | 0.00 | 92 | 1013.7 |
| 20260904000725 | 66 | 252 | 2.0 | 7.0 | 0.00 | 0.01 | 0.00 | 92 | 1013.9 |
| 20260903235723 | 66 | 270 | 3.0 | 7.0 | 0.00 | 0.01 | 0.00 | 92 | 1014.2 |
| 20260903234719 | 66 | 253 | 2.0 | 7.0 | 0.00 | 0.01 | 0.00 | 92 | 1014.3 |
| 20260903233716 | 66 | 247 | 2.0 | 6.0 | 0.00 | 0.01 | 0.00 | 92 | 1014.3 |
| 20260903232738 | 66 | 257 | 2.0 | 4.0 | 0.00 | 0.01 | 0.00 | 91 | 1014.4 |
| 20260903231730 | 66 | 259 | 1.0 | 3.0 | 0.00 | 0.01 | 0.00 | 90 | 1014.5 |
| 20260903230727 | 66 | 260 | 3.0 | 7.0 | 0.00 | 0.01 | 0.00 | 90 | 1014.6 |
| 20260903225726 | 66 | 275 | 3.0 | 4.0 | 0.00 | 0.01 | 0.00 | 89 | 1014.7 |
| 20260903224726 | 66 | 259 | 2.0 | 4.0 | 0.00 | 0.01 | 0.00 | 88 | 1014.7 |
| 20260903223723 | 66 | 260 | 1.0 | 4.0 | 0.00 | 0.01 | 0.00 | 87 | 1014.8 |
| 20260903222722 | 66 | 250 | 2.0 | 7.0 | 0.00 | 0.01 | 0.00 | 86 | 1015.0 |
| 20260903221738 | 66 | 253 | 2.0 | 6.0 | 0.00 | 0.01 | 0.00 | 85 | 1015.1 |
| 20260903220734 | 66 | 252 | 1.0 | 3.0 | 0.00 | 0.01 | 0.00 | 84 | 1015.3 |
| 20260903215731 | 66 | 254 | 1.0 | 4.0 | 0.00 | 0.01 | 0.01 | 84 | 1015.3 |
| 20260903214726 | 66 | 218 | 1.0 | 4.0 | 0.00 | 0.01 | 0.01 | 83 | 1015.2 |
| 20260903213730 | 66 | 186 | 1.0 | 3.0 | 0.00 | 0.01 | 0.01 | 82 | 1015.3 |
| 20260903212734 | 65 | 227 | 1.0 | 3.0 | 0.00 | 0.01 | 0.01 | 84 | 1015.5 |
| 20260903211741 | 65 | 256 | 1.0 | 3.0 | 0.00 | 0.01 | 0.01 | 84 | 1015.7 |
| 20260903210736 | 66 | 264 | 1.0 | 3.0 | 0.00 | 0.01 | 0.01 | 83 | 1015.5 |
| 20260903205733 | 66 | 261 | 1.0 | 3.0 | 0.00 | 0.01 | 0.01 | 83 | 1015.5 |
| 20260903204729 | 66 | 262 | 1.0 | 3.0 | 0.00 | 0.01 | 0.01 | 82 | 1015.7 |
| 20260903203727 | 66 | 254 | 2.0 | 3.0 | 0.00 | 0.01 | 0.01 | 82 | 1015.7 |
| 20260903202732 | 66 | 253 | 2.0 | 4.0 | 0.00 | 0.01 | 0.01 | 81 | 1015.7 |
| 20260903201721 | 67 | 256 | 2.0 | 4.0 | 0.00 | 0.01 | 0.01 | 80 | 1015.7 |
| 20260903200738 | 67 | 256 | 3.0 | 6.0 | 0.00 | 0.01 | 0.01 | 80 | 1015.9 |
| 20260903195741 | 67 | 249 | 2.0 | 4.0 | 0.00 | 0.01 | 0.01 | 80 | 1015.8 |
| 20260903194741 | 67 | 249 | 2.0 | 6.0 | 0.00 | 0.01 | 0.01 | 79 | 1015.8 |
| 20260903193728 | 67 | 259 | 2.0 | 4.0 | 0.00 | 0.01 | 0.01 | 79 | 1015.8 |
| 20260903192734 | 68 | 249 | 1.0 | 3.0 | 0.00 | 0.01 | 0.01 | 77 | 1015.7 |
| 20260903191729 | 68 | 259 | 2.0 | 4.0 | 0.00 | 0.01 | 0.01 | 76 | 1015.8 |
| 20260903190721 | 69 | 235 | 2.0 | 4.0 | 0.00 | 0.01 | 0.01 | 75 | 1015.7 |
| 20260903185747 | 69 | 225 | 2.0 | 6.0 | 0.00 | 0.01 | 0.01 | 74 | 1015.6 |
| 20260903184736 | 69 | 246 | 3.0 | 7.0 | 0.00 | 0.01 | 0.01 | 75 | 1015.6 |
| 20260903183738 | 69 | 252 | 3.0 | 6.0 | 0.00 | 0.01 | 0.01 | 75 | 1015.6 |
| 20260903182730 | 70 | 244 | 3.0 | 6.0 | 0.00 | 0.01 | 0.01 | 75 | 1015.8 |
| 20260903181726 | 69 | 248 | 3.0 | 9.0 | 0.00 | 0.01 | 0.01 | 74 | 1015.9 |
| 20260903180725 | 70 | 257 | 3.0 | 6.0 | 0.00 | 0.01 | 0.01 | 73 | 1015.8 |
| 20260903175721 | 70 | 257 | 4.0 | 8.0 | 0.00 | 0.01 | 0.01 | 72 | 1015.7 |
| 20260903174741 | 70 | 247 | 4.0 | 8.0 | 0.00 | 0.01 | 0.01 | 70 | 1015.5 |
| 20260903173740 | 71 | 257 | 5.0 | 9.0 | 0.00 | 0.01 | 0.01 | 68 | 1015.3 |
| 20260903172742 | 71 | 249 | 4.0 | 8.0 | 0.00 | 0.01 | 0.01 | 68 | 1015.3 |
| 20260903171729 | 72 | 258 | 4.0 | 8.0 | 0.00 | 0.01 | 0.01 | 66 | 1015.0 |
| 20260903170733 | 73 | 241 | 3.0 | 7.0 | 0.00 | 0.01 | 0.01 | 65 | 1015.2 |
| 20260903165727 | 73 | 243 | 4.0 | 9.0 | 0.00 | 0.01 | 0.01 | 65 | 1015.2 |
| 20260903164723 | 73 | 251 | 3.0 | 9.0 | 0.00 | 0.01 | 0.01 | 66 | 1015.3 |
| 20260903163739 | 73 | 260 | 5.0 | 11.0 | 0.00 | 0.01 | 0.01 | 64 | 1015.3 |
| 20260903162736 | 74 | 256 | 6.0 | 14.0 | 0.00 | 0.01 | 0.01 | 63 | 1015.2 |